Latest Weather Observations for Viewbank

IDV60801

Issued at 11:31 am EDT Thursday 11 February 2016 (issued every 30 minutes, with the page automatically refreshed every 10 minutes)

About weather observations | Map of weather stations | Latest weather observations for VIC | Other Formats
Station Details ID: 086068 Name: VIEWBANK Lat: -37.74 Lon: 145.10 Height: 66.1 m
Data from the previous 72 hours. | See also: Recent months at Viewbank
Date/Time
EDT
Temp
°C
App
Temp
°C
Dew
Point
Rel
Hum
%
Delta-T
°C
Wind Press
QNH
hPa
Press
MSL
hPa
Rain
since 9 am
mm
Dir
 
Spd
km/h
Gust
km/h
Spd
kts
Gust
kts
11/11:30am 23.2 21.3 11.9 49 6.4 SE 13 22 7 12 1016.8 1016.6 0.0
11/11:00am 22.5 20.6 11.9 51 6.0 SSE 13 22 7 12 1017.1 1016.9 0.0
11/10:30am 21.9 21.5 13.0 57 5.1 S 7 15 4 8 1017.1 1016.9 0.0
11/10:00am 20.3 19.4 12.5 61 4.4 SSE 9 17 5 9 1017.3 1017.1 0.0
11/09:30am 20.0 19.3 13.2 65 3.9 SE 9 17 5 9 1017.4 1017.2 0.0
11/09:00am 19.5 18.3 13.9 70 3.2 SE 13 19 7 10 1017.4 1017.2 0.0
11/08:30am 18.4 18.5 14.5 78 2.3 SSE 7 13 4 7 1017.3 1017.1 0.0
11/08:00am 17.5 17.8 14.6 83 1.7 SSW 6 9 3 5 1017.1 1016.9 0.0
11/07:30am 16.8 18.4 14.8 88 1.2 CALM 0 6 0 3 1016.8 1016.6 0.0
11/07:00am 16.2 17.3 14.7 91 0.9 SSE 2 6 1 3 1016.6 1016.4 0.0
11/06:30am 16.0 17.4 14.5 91 0.9 CALM 0 0 0 0 1016.2 1015.9 0.0
11/06:00am 16.5 17.1 14.3 87 1.3 S 4 7 2 4 1015.9 1015.6 0.0
11/05:30am 17.0 18.0 14.3 84 1.5 S 2 7 1 4 1015.8 1015.5 0.0
11/05:00am 17.2 17.8 14.3 83 1.7 S 4 7 2 4 1015.6 1015.3 0.0
11/04:30am 17.0 18.0 14.3 84 1.5 SSE 2 6 1 3 1015.5 1015.2 0.0
11/04:00am 16.8 18.2 14.3 85 1.4 CALM 0 0 0 0 1015.4 1015.1 0.0
11/03:30am 16.7 17.7 14.2 85 1.4 SSE 2 7 1 4 1015.4 1015.1 0.0
11/03:00am 16.5 17.1 14.2 86 1.3 SSW 4 9 2 5 1015.6 1015.3 0.0
11/02:30am 16.5 17.8 14.0 85 1.4 CALM 0 4 0 2 1015.8 1015.5 0.0
11/02:00am 16.9 16.8 13.8 82 1.8 SSW 7 11 4 6 1016.1 1015.8 0.0
11/01:30am 17.2 16.8 14.1 82 1.8 SSW 9 13 5 7 1016.3 1016.0 0.0
11/01:00am 17.1 17.1 14.2 83 1.7 SSW 7 11 4 6 1016.5 1016.2 0.0
11/12:30am 16.9 16.8 13.8 82 1.8 SSW 7 13 4 7 1016.6 1016.4 0.0
11/12:00am 17.1 16.5 13.4 79 2.1 SSW 9 13 5 7 1016.6 1016.4 0.0
 
Date/Time
EDT
Temp
°C
App
Temp
°C
Dew
Point
Rel
Hum
%
Delta-T
°C
Wind Press
QNH
hPa
Press
MSL
hPa
Rain
since 9 am
mm
Dir
 
Spd
km/h
Gust
km/h
Spd
kts
Gust
kts
10/11:30pm 17.4 16.7 13.1 76 2.4 SSW 9 15 5 8 1016.6 1016.4 0.0
10/11:00pm 18.0 17.3 13.1 73 2.8 SSW 9 19 5 10 1016.6 1016.4 0.0
10/10:30pm 18.4 16.7 12.4 68 3.3 SSW 13 19 7 10 1016.4 1016.1 0.0
10/10:00pm 18.9 16.8 12.4 66 3.6 SSW 15 22 8 12 1016.1 1015.8 0.0
10/09:30pm 19.5 18.3 12.8 65 3.8 SSW 11 20 6 11 1015.8 1015.5 0.0
10/09:00pm 19.6 18.9 14.2 71 3.1 WSW 11 17 6 9 1015.3 1015.0 0.0
10/08:30pm 20.2 18.6 13.9 67 3.6 WSW 15 20 8 11 1015.1 1014.8 0.0
10/08:00pm 21.7 19.8 13.1 58 4.9 SW 15 24 8 13 1014.8 1014.5 0.0
10/07:30pm 24.1 20.8 8.1 36 8.5 SSW 15 24 8 13 1014.5 1014.2 0.0
10/07:00pm 24.4 22.1 11.7 45 7.2 SW 15 24 8 13 1014.2 1013.9 0.0
10/06:30pm 24.6 22.8 12.2 46 7.1 SSW 13 20 7 11 1014.1 1013.8 0.0
10/06:00pm 24.7 22.3 12.6 47 7.0 SSW 17 24 9 13 1014.0 1013.7 0.0
10/05:30pm 24.6 22.3 12.9 48 6.8 SSW 17 26 9 14 1013.9 1013.6 0.0
10/05:00pm 24.5 22.0 14.0 52 6.2 SW 20 28 11 15 1013.8 1013.5 0.0
10/04:30pm 25.7 23.5 13.2 46 7.3 SW 17 26 9 14 1013.7 1013.4 0.0
10/04:00pm 25.3 23.2 13.5 48 6.9 SW 17 28 9 15 1013.8 1013.5 0.0
10/03:30pm 25.1 22.5 13.9 49 6.6 SW 20 30 11 16 1014.1 1013.8 0.0
10/03:00pm 25.0 22.5 13.5 48 6.7 SW 19 32 10 17 1014.1 1013.8 0.0
10/02:30pm 25.7 23.6 13.5 46 7.2 WSW 17 28 9 15 1014.3 1014.0 0.0
10/02:00pm 24.3 21.9 12.6 48 6.7 WSW 17 22 9 12 1014.5 1014.2 0.0
10/01:30pm 25.3 23.4 14.1 50 6.6 WSW 17 24 9 13 1014.8 1014.5 0.0
10/01:00pm 24.4 23.0 13.3 50 6.5 SW 13 24 7 13 1015.0 1014.7 0.0
10/12:30pm 23.0 23.0 13.5 55 5.5 WSW 6 15 3 8 1015.5 1015.2 0.0
10/12:00pm 23.4 23.4 14.1 56 5.5 S 7 13 4 7 1015.8 1015.5 0.0
10/11:30am 21.0 20.7 13.4 62 4.4 SSW 7 15 4 8 1016.0 1015.7 0.0
10/11:00am 19.9 19.9 13.6 67 3.6 SW 6 9 3 5 1016.3 1016.0 0.0
10/10:30am 19.6 20.0 13.8 69 3.3 SSE 4 13 2 7 1016.5 1016.2 0.0
10/10:00am 19.0 19.1 13.8 72 3.0 S 6 7 3 4 1016.5 1016.2 0.0
10/09:30am 18.8 18.8 14.1 74 2.7 SSE 7 11 4 6 1016.6 1016.4 0.0
10/09:00am 18.6 18.8 14.1 75 2.6 SSW 6 9 3 5 1016.6 1016.4 0.0
10/08:30am 18.4 18.4 14.1 76 2.5 SSE 7 9 4 5 1016.1 1015.8 0.0
10/08:00am 18.1 18.8 14.6 80 2.0 S 4 9 2 5 1015.9 1015.6 0.0
10/07:30am 17.8 18.0 14.7 82 1.8 SSW 7 13 4 7 1015.6 1015.3 0.0
10/07:00am 17.8 18.9 14.7 82 1.8 SSW 2 7 1 4 1015.5 1015.2 0.0
10/06:30am 17.8 19.2 14.5 81 1.9 CALM 0 0 0 0 1015.0 1014.7 0.0
10/06:00am 17.9 18.6 14.6 81 1.9 SSE 4 9 2 5 1014.8 1014.5 0.0
10/05:30am 18.0 18.8 14.9 82 1.8 SW 4 11 2 6 1015.0 1014.7 0.0
10/05:00am 17.9 18.1 14.8 82 1.8 SSW 7 13 4 7 1015.2 1014.9 0.0
10/04:30am 17.9 18.1 14.8 82 1.8 SSW 7 13 4 7 1015.3 1015.0 0.0
10/04:00am 17.7 18.5 14.8 83 1.7 S 4 11 2 6 1015.4 1015.1 0.0
10/03:30am 17.7 17.7 15.1 85 1.5 SSW 9 17 5 9 1015.4 1015.1 0.0
10/03:00am 17.4 18.0 15.4 88 1.2 SW 6 9 3 5 1015.6 1015.3 0.0
10/02:30am 17.2 18.1 16.2 94 0.6 WSW 6 7 3 4 1015.9 1015.6 0.0
10/02:00am 16.8 17.7 16.2 96 0.4 SW 6 7 3 4 1016.2 1015.9 0.0
10/01:30am 17.0 17.4 16.2 95 0.5 SSW 9 13 5 7 1016.3 1016.0 0.0
10/01:00am 16.7 17.0 15.9 95 0.5 SW 9 11 5 6 1016.6 1016.4 0.0
10/12:30am 16.9 17.1 15.8 93 0.6 SW 9 11 5 6 1016.7 1016.5 0.0
10/12:00am 17.1 17.5 15.3 89 1.0 WSW 7 9 4 5 1016.8 1016.6 0.0
 
Date/Time
EDT
Temp
°C
App
Temp
°C
Dew
Point
Rel
Hum
%
Delta-T
°C
Wind Press
QNH
hPa
Press
MSL
hPa
Rain
since 9 am
mm
Dir
 
Spd
km/h
Gust
km/h
Spd
kts
Gust
kts
09/11:30pm 17.6 17.9 14.9 84 1.6 SW 7 9 4 5 1017.1 1016.9 0.0
09/11:00pm 18.1 17.9 14.8 81 1.9 SSW 9 13 5 7 1017.3 1017.1 0.0
09/10:30pm 18.5 18.7 14.6 78 2.3 SW 7 11 4 6 1017.4 1017.2 0.0
09/10:00pm 19.0 18.7 14.3 74 2.7 SSW 9 13 5 7 1017.3 1017.1 0.0
09/09:30pm 19.7 19.4 14.3 71 3.1 SSW 9 17 5 9 1017.2 1017.0 0.0
09/09:00pm 20.4 20.1 14.3 68 3.5 S 9 17 5 9 1017.1 1016.9 0.0
09/08:30pm 21.2 21.0 14.6 66 3.9 SSW 9 17 5 9 1016.8 1016.6 0.0
09/08:00pm 22.1 21.3 15.2 65 4.1 WSW 13 20 7 11 1016.8 1016.6 0.0
09/07:30pm 23.3 21.7 15.1 60 4.9 WSW 17 24 9 13 1016.6 1016.4 0.0
09/07:00pm 24.4 23.2 15.1 56 5.6 WSW 15 20 8 11 1016.5 1016.2 0.0
09/06:30pm 24.7 23.0 14.8 54 5.9 SW 17 22 9 12 1016.5 1016.2 0.0
09/06:00pm 24.9 23.6 14.7 53 6.1 SW 15 24 8 13 1016.5 1016.2 0.0
09/05:30pm 24.8 22.6 14.3 52 6.2 SW 19 28 10 15 1016.7 1016.5 0.0
09/05:00pm 25.5 23.3 14.3 50 6.7 SW 19 28 10 15 1017.1 1016.9 0.0
09/04:30pm 25.6 23.8 14.4 50 6.7 SW 17 24 9 13 1017.3 1017.1 0.0
09/04:00pm 25.2 22.7 14.0 49 6.6 WSW 20 30 11 16 1017.6 1017.4 0.0
09/03:30pm 25.3 22.9 13.8 49 6.8 WSW 19 26 10 14 1017.9 1017.7 0.0
09/03:00pm 25.3 23.1 14.4 50 6.5 WSW 19 26 10 14 1018.2 1018.0 0.0
09/02:30pm 25.2 22.9 14.0 49 6.6 WSW 19 28 10 15 1018.7 1018.5 0.0
09/02:00pm 24.9 22.4 13.5 49 6.7 WSW 19 28 10 15 1019.0 1018.8 0.0
09/01:30pm 24.9 22.6 13.1 48 6.9 WSW 17 26 9 14 1019.3 1019.1 0.0
09/01:00pm 25.2 23.8 13.4 48 6.9 SW 13 24 7 13 1019.6 1019.4 0.0
09/12:30pm 24.7 24.0 12.0 45 7.3 SSW 7 15 4 8 1020.0 1019.8 0.0
09/12:00pm 23.3 21.8 12.0 49 6.4 S 11 19 6 10 1020.5 1020.3 0.0
09/11:30am 23.0 22.5 12.6 52 6.0 S 7 20 4 11 1020.9 1020.7 0.0
09/11:00am 21.7 20.0 12.3 55 5.3 SW 13 19 7 10 1021.1 1020.9 0.0
09/10:30am 20.6 19.6 12.3 59 4.7 S 9 20 5 11 1021.3 1021.1 0.0
09/10:00am 20.5 20.0 12.5 60 4.5 ESE 7 15 4 8 1021.5 1021.3 0.0
09/09:30am 19.9 19.3 12.4 62 4.2 SE 7 13 4 7 1021.6 1021.4 0.0
09/09:00am 19.3 18.3 12.3 64 3.9 SE 9 17 5 9 1021.9 1021.7 0.0
09/08:30am 18.0 17.3 12.0 68 3.3 SE 7 13 4 7 1021.9 1021.7 0.0
09/08:00am 17.4 17.2 11.9 70 3.0 SSE 4 11 2 6 1021.9 1021.7 0.0
09/07:30am 16.8 16.5 11.5 71 2.9 SSE 4 11 2 6 1021.7 1021.5 0.0
09/07:00am 16.4 15.1 11.1 71 2.8 SE 9 15 5 8 1021.5 1021.3 0.0
09/06:30am 16.9 16.3 11.6 71 2.9 SSE 6 13 3 7 1021.5 1021.3 0.0
09/06:00am 17.0 16.5 12.1 73 2.7 S 6 11 3 6 1021.3 1021.1 0.0
09/05:30am 17.1 16.1 12.2 73 2.7 SSW 9 13 5 7 1021.2 1021.0 0.0
09/05:00am 17.1 16.1 12.2 73 2.7 SSW 9 15 5 8 1021.0 1020.8 0.0
09/04:30am 17.2 15.8 12.3 73 2.7 SSW 11 17 6 9 1021.1 1020.9 0.0
09/04:00am 17.3 16.3 12.2 72 2.8 SSW 9 17 5 9 1021.2 1021.0 0.0
09/03:30am 17.4 15.7 12.3 72 2.8 SSW 13 19 7 10 1021.3 1021.1 0.0
09/03:00am 17.4 16.5 12.5 73 2.7 S 9 15 5 8 1021.5 1021.3 0.0
09/02:30am 17.8 17.0 12.9 73 2.7 SSW 9 17 5 9 1021.6 1021.4 0.0
09/02:00am 17.7 18.1 12.6 72 2.8 S 2 7 1 4 1021.7 1021.5 0.0
09/01:30am 17.6 17.6 12.5 72 2.8 SSW 4 7 2 4 1022.0 1021.8 0.0
09/01:00am 17.4 16.8 12.3 72 2.8 S 7 13 4 7 1022.4 1022.2 0.0
09/12:30am 17.7 16.4 12.6 72 2.8 SSW 11 15 6 8 1022.5 1022.3 0.0
09/12:00am 17.8 15.7 12.5 71 2.9 SW 15 22 8 12 1022.7 1022.5 0.0
 
Date/Time
EDT
Temp
°C
App
Temp
°C
Dew
Point
Rel
Hum
%
Delta-T
°C
Wind Press
QNH
hPa
Press
MSL
hPa
Rain
since 9 am
mm
Dir
 
Spd
km/h
Gust
km/h
Spd
kts
Gust
kts
08/11:30pm 17.5 16.2 12.6 73 2.7 SSW 11 20 6 11 1022.9 1022.7 0.0
08/11:00pm 17.3 16.5 12.8 75 2.5 SSW 9 13 5 7 1023.1 1022.9 0.0
08/10:30pm 17.7 16.9 13.0 74 2.6 SSW 9 15 5 8 1023.1 1022.9 0.0
08/10:00pm 18.1 17.0 13.0 72 2.9 SSW 11 19 6 10 1023.0 1022.8 0.0
08/09:30pm 18.7 16.9 12.2 66 3.6 SSW 13 20 7 11 1022.7 1022.5 0.0
08/09:00pm 19.1 18.5 12.4 65 3.7 S 7 13 4 7 1022.2 1022.0 0.0
08/08:30pm 19.7 18.0 13.6 68 3.5 SW 15 24 8 13 1021.9 1021.7 0.0
08/08:00pm 20.4 18.7 13.6 65 3.9 SW 15 22 8 12 1021.6 1021.4 0.0
08/07:30pm 21.1 19.0 13.5 62 4.4 SW 17 30 9 16 1021.2 1021.0 0.0
08/07:00pm 22.3 19.8 13.4 57 5.1 SW 19 28 10 15 1021.1 1020.9 0.0
08/06:30pm 23.2 20.8 12.8 52 6.0 SSW 17 30 9 16 1020.9 1020.7 0.0
08/06:00pm 23.9 22.4 13.2 51 6.2 SSW 13 28 7 15 1020.9 1020.7 0.0
08/05:30pm 23.6 20.9 13.5 53 5.9 SSW 20 32 11 17 1020.9 1020.7 0.0
08/05:00pm 23.8 21.3 13.6 52 5.9 SW 19 32 10 17 1020.9 1020.7 0.0
08/04:30pm 24.2 21.2 13.7 52 6.2 SW 22 35 12 19 1021.2 1021.0 0.0
08/04:00pm 24.4 21.7 13.6 51 6.3 SW 20 33 11 18 1021.3 1021.1 0.0
08/03:30pm 24.3 21.5 13.2 50 6.5 SW 20 30 11 16 1021.3 1021.1 0.0
08/03:00pm 24.9 22.3 13.8 50 6.5 SW 20 30 11 16 1021.5 1021.3 0.0
08/02:30pm 24.8 22.1 13.0 47 6.9 SW 19 30 10 16 1021.5 1021.3 0.0
08/02:00pm 23.9 21.4 12.2 48 6.7 WSW 17 28 9 15 1021.8 1021.6 0.0
08/01:30pm 23.4 21.3 12.4 50 6.3 SW 15 28 8 15 1021.9 1021.7 0.0
08/01:00pm 22.2 20.7 13.0 56 5.3 SSW 13 22 7 12 1022.3 1022.1 0.0
08/12:30pm 21.6 20.2 13.5 60 4.7 SSW 13 20 7 11 1022.5 1022.3 0.0
08/12:00pm 21.4 19.9 14.1 63 4.2 SSW 15 20 8 11 1022.6 1022.4 0.0

Other Formats:

Comma delimited format used in spreadsheet applications
http://www.bom.gov.au/fwo/IDV60801/IDV60801.95874.axf

JavaScript Object Notation format (JSON) in row-major order
http://www.bom.gov.au/fwo/IDV60801/IDV60801.95874.json